Onweer radar Meer informatie blitzortung!


Regen radar Meer informatie rain snow radar



METAR rapporten vliegvelden

   
EHRD - Rotterdam
Gewijzigd: 23-09-2021 03:55
Licht bewolkt  
Licht bewolkt  
   Wind: ZW 8 km/h
Wind: ZW 8 km/h
Temperatuur: 14°C
Dauwpunt: 12°C
Vochtigheid: 88%
Barometer: 1021 hPa
Bewolking: Few Clouds
Zicht: meer dan 10 km
Bewolking: Licht bewolkt 3400 ft
EHRD 230155Z AUTO 22008KT 9999 FEW034 14/12 Q1021 NOSIG
EBAW - Antwerpen
Gewijzigd: 23-09-2021 04:20
Helder  
Helder  
   Wind: ZW 5 km/h
Wind: ZW 5 km/h
Temperatuur: 12°C
Dauwpunt: 9°C
Vochtigheid: 82%
Barometer: 1022 hPa
Bewolking: Clear
Zicht: 9 km
Bewolking: Helder ft
EBAW 230220Z AUTO 22005KT 9000 // NCD 12/09 Q1022
EHAM - Amsterdam
Gewijzigd: 23-09-2021 04:25
Gedeeltelijk bewolkt  
Gedeeltelijk bewolkt  
   Wind: ZZW 10 km/h
Wind: ZZW 10 km/h
Temperatuur: 14°C
Dauwpunt: 12°C
Vochtigheid: 88%
Barometer: 1020 hPa
Bewolking: Partly Cloudy
Zicht: 8 km
Bewolking: Licht bewolkt 1500 ft,
Gedeeltelijk bewolkt 3400 ft
EHAM 230225Z 21010KT 8000 FEW015 SCT034 14/12 Q1020 BECMG 7000
EHEH - Eindhoven
Gewijzigd: 23-09-2021 04:25
Nevel, Helder  
Nevel, Helder  
   Wind: ZZW 3 km/h
Wind: ZZW 3 km/h
Temperatuur: 8°C
Voelt als: 7°C
Dauwpunt: 7°C
Vochtigheid: 93%
Barometer: 1021 hPa
Bewolking: Clear
Zicht: 7 km
Bewolking: Helder ft
EHEH 230225Z AUTO 20003KT 7000 BR NCD 08/07 Q1021 WHT
  

Script ontwikkeld door  Saratoga-weather.org Aangepast voor de template door  Weerstation Leuven

U vindt ons ook hier:

Het Weer Aktueel

Apparatuur in gebruik:

Weerstation
Davis VP2

Weerprogramma
Cumulus

Weercomputer
Pipo X9 with Windows 10

Davis VP2

Cumulus

Pipo X9 with Windows 10